sensor_id;sensor_type;location;lat;lon;timestamp;pressure;altitude;pressure_sealevel;temperature;humidity
57094;BME280;42970;50.996;3.706;2023-07-02T00:01:41;47175.91;;;-146.65;70.21
57094;BME280;42970;50.996;3.706;2023-07-02T00:04:06;47175.91;;;-146.65;70.17
57094;BME280;42970;50.996;3.706;2023-07-02T00:06:34;47173.91;;;-146.65;70.50
57094;BME280;42970;50.996;3.706;2023-07-02T00:09:05;47173.91;;;-146.65;70.44
57094;BME280;42970;50.996;3.706;2023-07-02T00:11:30;47173.91;;;-146.65;70.69
57094;BME280;42970;50.996;3.706;2023-07-02T00:13:55;47173.91;;;-146.65;70.99
57094;BME280;42970;50.996;3.706;2023-07-02T00:16:21;47175.91;;;-146.65;71.11
57094;BME280;42970;50.996;3.706;2023-07-02T00:18:46;47175.91;;;-146.65;71.44
57094;BME280;42970;50.996;3.706;2023-07-02T00:21:17;47173.91;;;-146.65;71.37
57094;BME280;42970;50.996;3.706;2023-07-02T00:23:42;47179.91;;;-146.65;71.37
57094;BME280;42970;50.996;3.706;2023-07-02T00:26:07;47173.91;;;-146.65;71.52
57094;BME280;42970;50.996;3.706;2023-07-02T00:28:33;47173.91;;;-146.65;71.71
57094;BME280;42970;50.996;3.706;2023-07-02T00:30:58;47177.91;;;-146.65;71.81
57094;BME280;42970;50.996;3.706;2023-07-02T00:33:23;47173.91;;;-146.65;71.85
57094;BME280;42970;50.996;3.706;2023-07-02T00:35:49;47175.91;;;-146.65;71.64
57094;BME280;42970;50.996;3.706;2023-07-02T00:38:15;47175.91;;;-146.65;72.12
57094;BME280;42970;50.996;3.706;2023-07-02T00:40:40;47173.91;;;-146.65;72.02
57094;BME280;42970;50.996;3.706;2023-07-02T00:43:05;47175.91;;;-146.65;72.64
57094;BME280;42970;50.996;3.706;2023-07-02T00:45:30;47173.91;;;-146.65;73.08
57094;BME280;42970;50.996;3.706;2023-07-02T00:47:56;47175.91;;;-146.65;72.91
57094;BME280;42970;50.996;3.706;2023-07-02T00:50:22;47177.91;;;-146.65;72.75
57094;BME280;42970;50.996;3.706;2023-07-02T00:52:47;47177.91;;;-146.65;72.92
57094;BME280;42970;50.996;3.706;2023-07-02T00:55:13;47173.91;;;-146.65;72.91
57094;BME280;42970;50.996;3.706;2023-07-02T00:57:38;47173.91;;;-146.65;73.51
57094;BME280;42970;50.996;3.706;2023-07-02T01:00:06;47173.91;;;-146.65;73.79
57094;BME280;42970;50.996;3.706;2023-07-02T01:02:31;47173.91;;;-146.65;74.30
57094;BME280;42970;50.996;3.706;2023-07-02T01:04:57;47177.91;;;-146.65;74.28
57094;BME280;42970;50.996;3.706;2023-07-02T01:07:25;47177.91;;;-146.65;74.41
57094;BME280;42970;50.996;3.706;2023-07-02T01:09:51;47173.91;;;-146.65;74.53
57094;BME280;42970;50.996;3.706;2023-07-02T01:12:16;47171.91;;;-146.65;74.40
57094;BME280;42970;50.996;3.706;2023-07-02T01:14:44;47169.91;;;-146.65;74.64
57094;BME280;42970;50.996;3.706;2023-07-02T01:17:11;47175.91;;;-146.65;74.78
57094;BME280;42970;50.996;3.706;2023-07-02T01:19:44;47169.91;;;-146.65;74.72
57094;BME280;42970;50.996;3.706;2023-07-02T01:22:10;47179.91;;;-146.65;74.61
57094;BME280;42970;50.996;3.706;2023-07-02T01:24:37;47177.91;;;-146.65;75.15
57094;BME280;42970;50.996;3.706;2023-07-02T01:27:03;47171.91;;;-146.65;75.60
57094;BME280;42970;50.996;3.706;2023-07-02T01:29:29;47179.91;;;-146.65;75.81
57094;BME280;42970;50.996;3.706;2023-07-02T01:31:55;47175.91;;;-146.65;75.83
57094;BME280;42970;50.996;3.706;2023-07-02T01:34:21;47173.91;;;-146.65;75.58
57094;BME280;42970;50.996;3.706;2023-07-02T01:36:46;47175.91;;;-146.65;75.58
57094;BME280;42970;50.996;3.706;2023-07-02T01:39:11;47173.91;;;-146.65;75.81
57094;BME280;42970;50.996;3.706;2023-07-02T01:41:37;47177.91;;;-146.65;76.04
57094;BME280;42970;50.996;3.706;2023-07-02T01:44:06;47173.91;;;-146.65;76.46
57094;BME280;42970;50.996;3.706;2023-07-02T01:46:31;47181.91;;;-146.65;76.69
57094;BME280;42970;50.996;3.706;2023-07-02T01:48:57;47177.91;;;-146.65;76.70
57094;BME280;42970;50.996;3.706;2023-07-02T01:51:22;47175.91;;;-146.65;76.63
57094;BME280;42970;50.996;3.706;2023-07-02T01:53:47;47173.91;;;-146.65;76.83
57094;BME280;42970;50.996;3.706;2023-07-02T01:56:12;47171.91;;;-146.65;77.19
57094;BME280;42970;50.996;3.706;2023-07-02T01:58:39;47175.91;;;-146.65;77.60
57094;BME280;42970;50.996;3.706;2023-07-02T02:01:04;47175.91;;;-146.65;77.54
57094;BME280;42970;50.996;3.706;2023-07-02T02:03:29;47173.91;;;-146.65;77.78
57094;BME280;42970;50.996;3.706;2023-07-02T02:05:54;47177.91;;;-146.65;78.22
57094;BME280;42970;50.996;3.706;2023-07-02T02:08:19;47179.91;;;-146.65;78.07
57094;BME280;42970;50.996;3.706;2023-07-02T02:10:45;47175.91;;;-146.65;78.28
57094;BME280;42970;50.996;3.706;2023-07-02T02:13:10;47175.91;;;-146.65;78.56
57094;BME280;42970;50.996;3.706;2023-07-02T02:15:35;47175.91;;;-146.65;78.65
57094;BME280;42970;50.996;3.706;2023-07-02T02:18:01;47175.91;;;-146.65;78.72
57094;BME280;42970;50.996;3.706;2023-07-02T02:20:26;47173.91;;;-146.65;78.66
57094;BME280;42970;50.996;3.706;2023-07-02T02:22:52;47175.91;;;-146.65;78.60
57094;BME280;42970;50.996;3.706;2023-07-02T02:25:17;47173.91;;;-146.65;78.56
57094;BME280;42970;50.996;3.706;2023-07-02T02:27:42;47177.91;;;-146.65;79.19
57094;BME280;42970;50.996;3.706;2023-07-02T02:30:08;47173.91;;;-146.65;78.85
57094;BME280;42970;50.996;3.706;2023-07-02T02:32:33;47173.91;;;-146.65;79.24
57094;BME280;42970;50.996;3.706;2023-07-02T02:34:59;47175.91;;;-146.65;79.25
57094;BME280;42970;50.996;3.706;2023-07-02T02:37:24;47177.91;;;-146.65;79.85
57094;BME280;42970;50.996;3.706;2023-07-02T02:39:49;47179.91;;;-146.65;79.80
57094;BME280;42970;50.996;3.706;2023-07-02T02:42:15;47171.91;;;-146.65;79.68
57094;BME280;42970;50.996;3.706;2023-07-02T02:44:41;47177.91;;;-146.65;80.06
57094;BME280;42970;50.996;3.706;2023-07-02T02:47:07;47173.91;;;-146.65;79.94
57094;BME280;42970;50.996;3.706;2023-07-02T02:49:32;47175.91;;;-146.65;80.44
57094;BME280;42970;50.996;3.706;2023-07-02T02:51:57;47173.91;;;-146.65;80.11
57094;BME280;42970;50.996;3.706;2023-07-02T02:54:23;47173.91;;;-146.65;80.31
57094;BME280;42970;50.996;3.706;2023-07-02T02:56:50;47175.91;;;-146.65;80.54
57094;BME280;42970;50.996;3.706;2023-07-02T02:59:15;47173.91;;;-146.65;80.53
57094;BME280;42970;50.996;3.706;2023-07-02T03:01:41;47173.91;;;-146.65;80.84
57094;BME280;42970;50.996;3.706;2023-07-02T03:04:06;47171.91;;;-146.65;80.89
57094;BME280;42970;50.996;3.706;2023-07-02T03:06:33;47175.91;;;-146.65;80.75
57094;BME280;42970;50.996;3.706;2023-07-02T03:08:58;47173.91;;;-146.65;81.31
57094;BME280;42970;50.996;3.706;2023-07-02T03:11:23;47175.91;;;-146.65;81.00
57094;BME280;42970;50.996;3.706;2023-07-02T03:13:49;47171.91;;;-146.65;80.89
57094;BME280;42970;50.996;3.706;2023-07-02T03:16:14;47179.91;;;-146.65;80.58
57094;BME280;42970;50.996;3.706;2023-07-02T03:18:39;47173.91;;;-146.65;80.96
57094;BME280;42970;50.996;3.706;2023-07-02T03:21:05;47175.91;;;-146.65;81.15
57094;BME280;42970;50.996;3.706;2023-07-02T03:23:30;47173.91;;;-146.65;81.08
57094;BME280;42970;50.996;3.706;2023-07-02T03:25:55;47175.91;;;-146.65;81.49
57094;BME280;42970;50.996;3.706;2023-07-02T03:28:20;47169.91;;;-146.65;81.14
57094;BME280;42970;50.996;3.706;2023-07-02T03:30:46;47175.91;;;-146.65;81.38
57094;BME280;42970;50.996;3.706;2023-07-02T03:33:11;47175.91;;;-146.65;81.39
57094;BME280;42970;50.996;3.706;2023-07-02T03:35:36;47177.91;;;-146.65;81.63
57094;BME280;42970;50.996;3.706;2023-07-02T03:38:02;47175.91;;;-146.65;81.72
57094;BME280;42970;50.996;3.706;2023-07-02T03:40:28;47173.91;;;-146.65;81.49
57094;BME280;42970;50.996;3.706;2023-07-02T03:42:53;47173.91;;;-146.65;81.48
57094;BME280;42970;50.996;3.706;2023-07-02T03:45:18;47175.91;;;-146.65;81.92
57094;BME280;42970;50.996;3.706;2023-07-02T03:47:44;47171.91;;;-146.65;81.66
57094;BME280;42970;50.996;3.706;2023-07-02T03:50:09;47173.91;;;-146.65;81.41
57094;BME280;42970;50.996;3.706;2023-07-02T03:52:34;47175.91;;;-146.65;81.35
57094;BME280;42970;50.996;3.706;2023-07-02T03:55:00;47175.91;;;-146.65;81.50
57094;BME280;42970;50.996;3.706;2023-07-02T03:57:25;47175.91;;;-146.65;81.47
57094;BME280;42970;50.996;3.706;2023-07-02T03:59:51;47175.91;;;-146.65;81.90
57094;BME280;42970;50.996;3.706;2023-07-02T04:02:16;47175.91;;;-146.65;81.92
57094;BME280;42970;50.996;3.706;2023-07-02T04:04:42;47173.91;;;-146.65;81.73
57094;BME280;42970;50.996;3.706;2023-07-02T04:07:07;47173.91;;;-146.65;81.71
57094;BME280;42970;50.996;3.706;2023-07-02T04:09:32;47171.91;;;-146.65;81.56
57094;BME280;42970;50.996;3.706;2023-07-02T04:11:58;47173.91;;;-146.65;81.74
57094;BME280;42970;50.996;3.706;2023-07-02T04:14:23;47173.91;;;-146.65;81.87
57094;BME280;42970;50.996;3.706;2023-07-02T04:16:48;47173.91;;;-146.65;82.03
57094;BME280;42970;50.996;3.706;2023-07-02T04:19:14;47175.91;;;-146.65;82.21
57094;BME280;42970;50.996;3.706;2023-07-02T04:21:39;47175.91;;;-146.65;81.98
57094;BME280;42970;50.996;3.706;2023-07-02T04:24:04;47173.91;;;-146.65;82.24
57094;BME280;42970;50.996;3.706;2023-07-02T04:26:30;47173.91;;;-146.65;82.19
57094;BME280;42970;50.996;3.706;2023-07-02T04:28:55;47175.91;;;-146.65;82.26
57094;BME280;42970;50.996;3.706;2023-07-02T04:31:21;47173.91;;;-146.65;82.22
57094;BME280;42970;50.996;3.706;2023-07-02T04:33:46;47173.91;;;-146.65;82.17
57094;BME280;42970;50.996;3.706;2023-07-02T04:36:11;47173.91;;;-146.65;82.23
57094;BME280;42970;50.996;3.706;2023-07-02T04:38:37;47173.91;;;-146.65;82.14
57094;BME280;42970;50.996;3.706;2023-07-02T04:41:04;47173.91;;;-146.65;82.52
57094;BME280;42970;50.996;3.706;2023-07-02T04:43:30;47171.91;;;-146.65;82.20
57094;BME280;42970;50.996;3.706;2023-07-02T04:45:56;47173.91;;;-146.65;82.11
57094;BME280;42970;50.996;3.706;2023-07-02T04:48:22;47175.91;;;-146.65;81.76
57094;BME280;42970;50.996;3.706;2023-07-02T04:50:47;47179.91;;;-146.65;81.79
57094;BME280;42970;50.996;3.706;2023-07-02T04:53:12;47175.91;;;-146.65;81.69
57094;BME280;42970;50.996;3.706;2023-07-02T04:55:37;47175.91;;;-146.65;81.55
57094;BME280;42970;50.996;3.706;2023-07-02T04:58:03;47169.91;;;-146.65;81.20
57094;BME280;42970;50.996;3.706;2023-07-02T05:00:28;47175.91;;;-146.65;81.21
57094;BME280;42970;50.996;3.706;2023-07-02T05:02:53;47173.91;;;-146.65;80.74
57094;BME280;42970;50.996;3.706;2023-07-02T05:05:19;47173.91;;;-146.65;80.70
57094;BME280;42970;50.996;3.706;2023-07-02T05:07:44;47177.91;;;-146.65;80.92
57094;BME280;42970;50.996;3.706;2023-07-02T05:10:09;47171.91;;;-146.65;80.93
57094;BME280;42970;50.996;3.706;2023-07-02T05:12:35;47177.91;;;-146.65;80.82
57094;BME280;42970;50.996;3.706;2023-07-02T05:15:00;47177.91;;;-146.65;79.55
57094;BME280;42970;50.996;3.706;2023-07-02T05:17:25;47175.91;;;-146.65;79.49
57094;BME280;42970;50.996;3.706;2023-07-02T05:19:51;47175.91;;;-146.65;79.17
57094;BME280;42970;50.996;3.706;2023-07-02T05:22:17;47177.91;;;-146.65;79.02
57094;BME280;42970;50.996;3.706;2023-07-02T05:24:42;47173.91;;;-146.65;78.64
57094;BME280;42970;50.996;3.706;2023-07-02T05:27:09;47173.91;;;-146.65;78.69
57094;BME280;42970;50.996;3.706;2023-07-02T05:29:34;47173.91;;;-146.65;78.82
57094;BME280;42970;50.996;3.706;2023-07-02T05:31:59;47177.91;;;-146.65;78.31
57094;BME280;42970;50.996;3.706;2023-07-02T05:34:26;47175.91;;;-146.65;77.95
57094;BME280;42970;50.996;3.706;2023-07-02T05:36:51;47177.91;;;-146.65;77.63
57094;BME280;42970;50.996;3.706;2023-07-02T05:39:16;47175.91;;;-146.65;77.24
57094;BME280;42970;50.996;3.706;2023-07-02T05:41:42;47175.91;;;-146.65;77.54
57094;BME280;42970;50.996;3.706;2023-07-02T05:44:07;47171.91;;;-146.65;77.42
57094;BME280;42970;50.996;3.706;2023-07-02T05:46:32;47175.91;;;-146.65;77.23
57094;BME280;42970;50.996;3.706;2023-07-02T05:48:58;47175.91;;;-146.65;76.89
57094;BME280;42970;50.996;3.706;2023-07-02T05:51:25;47175.91;;;-146.65;75.73
57094;BME280;42970;50.996;3.706;2023-07-02T05:53:50;47173.91;;;-146.65;75.27
57094;BME280;42970;50.996;3.706;2023-07-02T05:56:16;47179.91;;;-146.65;74.58
57094;BME280;42970;50.996;3.706;2023-07-02T05:58:41;47175.91;;;-146.65;74.38
57094;BME280;42970;50.996;3.706;2023-07-02T06:01:06;47171.91;;;-146.65;73.77
57094;BME280;42970;50.996;3.706;2023-07-02T06:03:32;47175.91;;;-146.65;73.11
57094;BME280;42970;50.996;3.706;2023-07-02T06:05:57;47169.91;;;-146.65;73.84
57094;BME280;42970;50.996;3.706;2023-07-02T06:08:22;47171.91;;;-146.65;71.98
57094;BME280;42970;50.996;3.706;2023-07-02T06:10:50;47173.91;;;-146.65;71.29
57094;BME280;42970;50.996;3.706;2023-07-02T06:13:16;47173.91;;;-146.65;70.29
57094;BME280;42970;50.996;3.706;2023-07-02T06:15:41;47177.91;;;-146.65;70.03
57094;BME280;42970;50.996;3.706;2023-07-02T06:18:07;47171.91;;;-146.65;66.98
57094;BME280;42970;50.996;3.706;2023-07-02T06:20:32;47177.91;;;-146.65;67.07
57094;BME280;42970;50.996;3.706;2023-07-02T06:22:57;47175.91;;;-146.65;68.21
57094;BME280;42970;50.996;3.706;2023-07-02T06:25:26;47175.91;;;-146.65;66.02
57094;BME280;42970;50.996;3.706;2023-07-02T06:27:51;47175.91;;;-146.65;66.46
57094;BME280;42970;50.996;3.706;2023-07-02T06:30:19;47171.91;;;-146.65;64.21
57094;BME280;42970;50.996;3.706;2023-07-02T06:32:44;47173.91;;;-146.65;63.74
57094;BME280;42970;50.996;3.706;2023-07-02T06:35:09;47173.91;;;-146.65;63.13
57094;BME280;42970;50.996;3.706;2023-07-02T06:37:35;47173.91;;;-146.65;61.13
57094;BME280;42970;50.996;3.706;2023-07-02T06:40:00;47179.91;;;-146.65;62.38
57094;BME280;42970;50.996;3.706;2023-07-02T06:42:25;47173.91;;;-146.65;62.46
57094;BME280;42970;50.996;3.706;2023-07-02T06:44:51;47177.91;;;-146.65;63.89
57094;BME280;42970;50.996;3.706;2023-07-02T06:47:16;47177.91;;;-146.65;60.27
57094;BME280;42970;50.996;3.706;2023-07-02T06:49:42;47171.91;;;-146.65;58.58
57094;BME280;42970;50.996;3.706;2023-07-02T06:52:07;47175.91;;;-146.65;58.48
57094;BME280;42970;50.996;3.706;2023-07-02T06:54:32;47175.91;;;-146.65;58.42
57094;BME280;42970;50.996;3.706;2023-07-02T06:56:58;47175.91;;;-146.65;58.88
57094;BME280;42970;50.996;3.706;2023-07-02T06:59:23;47175.91;;;-146.65;59.69
57094;BME280;42970;50.996;3.706;2023-07-02T07:01:49;47175.91;;;-146.65;58.04
57094;BME280;42970;50.996;3.706;2023-07-02T07:04:14;47175.91;;;-146.65;58.54
57094;BME280;42970;50.996;3.706;2023-07-02T07:06:40;47175.91;;;-146.65;57.12
57094;BME280;42970;50.996;3.706;2023-07-02T07:09:05;47175.91;;;-146.65;56.14
57094;BME280;42970;50.996;3.706;2023-07-02T07:11:30;47181.91;;;-146.65;53.65
57094;BME280;42970;50.996;3.706;2023-07-02T07:13:56;47171.91;;;-146.65;54.22
57094;BME280;42970;50.996;3.706;2023-07-02T07:16:21;47175.91;;;-146.65;54.92
57094;BME280;42970;50.996;3.706;2023-07-02T07:18:47;47181.91;;;-146.65;55.96
57094;BME280;42970;50.996;3.706;2023-07-02T07:21:12;47167.88;;;-146.65;54.00
57094;BME280;42970;50.996;3.706;2023-07-02T07:23:39;47171.91;;;-146.65;53.91
57094;BME280;42970;50.996;3.706;2023-07-02T07:26:04;47173.91;;;-146.65;54.35
57094;BME280;42970;50.996;3.706;2023-07-02T07:28:30;47171.91;;;-146.65;53.28
57094;BME280;42970;50.996;3.706;2023-07-02T07:30:55;47181.91;;;-146.65;55.29
57094;BME280;42970;50.996;3.706;2023-07-02T07:33:20;47171.91;;;-146.65;53.38
57094;BME280;42970;50.996;3.706;2023-07-02T07:35:45;47175.91;;;-146.65;53.42
57094;BME280;42970;50.996;3.706;2023-07-02T07:38:12;47177.91;;;-146.65;52.53
57094;BME280;42970;50.996;3.706;2023-07-02T07:40:37;47175.91;;;-146.65;53.17
57094;BME280;42970;50.996;3.706;2023-07-02T07:43:03;47173.91;;;-146.65;53.24
57094;BME280;42970;50.996;3.706;2023-07-02T07:45:28;47171.91;;;-146.65;52.90
57094;BME280;42970;50.996;3.706;2023-07-02T07:47:53;47175.91;;;-146.65;52.19
57094;BME280;42970;50.996;3.706;2023-07-02T07:50:19;47171.91;;;-146.65;51.47
57094;BME280;42970;50.996;3.706;2023-07-02T07:52:44;47173.91;;;-146.65;51.05
57094;BME280;42970;50.996;3.706;2023-07-02T07:55:09;47179.91;;;-146.65;51.52
57094;BME280;42970;50.996;3.706;2023-07-02T07:57:36;47173.91;;;-146.65;51.93
57094;BME280;42970;50.996;3.706;2023-07-02T08:00:02;47173.91;;;-146.65;53.96
57094;BME280;42970;50.996;3.706;2023-07-02T08:02:29;47173.91;;;-146.65;53.70
57094;BME280;42970;50.996;3.706;2023-07-02T08:04:54;47173.91;;;-146.65;54.45
57094;BME280;42970;50.996;3.706;2023-07-02T08:07:20;47175.91;;;-146.65;56.69
57094;BME280;42970;50.996;3.706;2023-07-02T08:09:45;47177.91;;;-146.65;57.46
57094;BME280;42970;50.996;3.706;2023-07-02T08:12:10;47177.91;;;-146.65;56.00
57094;BME280;42970;50.996;3.706;2023-07-02T08:14:35;47175.91;;;-146.65;56.78
57094;BME280;42970;50.996;3.706;2023-07-02T08:17:01;47177.91;;;-146.65;56.57
57094;BME280;42970;50.996;3.706;2023-07-02T08:19:26;47169.91;;;-146.65;56.17
57094;BME280;42970;50.996;3.706;2023-07-02T08:21:51;47177.91;;;-146.65;57.02
57094;BME280;42970;50.996;3.706;2023-07-02T08:24:17;47181.91;;;-146.65;53.79
57094;BME280;42970;50.996;3.706;2023-07-02T08:26:42;47181.91;;;-146.65;53.20
57094;BME280;42970;50.996;3.706;2023-07-02T08:29:09;47173.91;;;-146.65;54.98
57094;BME280;42970;50.996;3.706;2023-07-02T08:31:35;47177.91;;;-146.65;53.77
57094;BME280;42970;50.996;3.706;2023-07-02T08:34:00;47179.91;;;-146.65;53.59
57094;BME280;42970;50.996;3.706;2023-07-02T08:36:25;47175.91;;;-146.65;50.82
57094;BME280;42970;50.996;3.706;2023-07-02T08:38:50;47175.91;;;-146.65;50.71
57094;BME280;42970;50.996;3.706;2023-07-02T08:41:16;47173.91;;;-146.65;50.59
57094;BME280;42970;50.996;3.706;2023-07-02T08:43:41;47173.91;;;-146.65;49.23
57094;BME280;42970;50.996;3.706;2023-07-02T08:46:08;47175.91;;;-146.65;48.59
57094;BME280;42970;50.996;3.706;2023-07-02T08:48:34;47169.91;;;-146.65;46.50
57094;BME280;42970;50.996;3.706;2023-07-02T08:50:59;47171.91;;;-146.65;49.09
57094;BME280;42970;50.996;3.706;2023-07-02T08:53:25;47175.91;;;-146.65;46.83
57094;BME280;42970;50.996;3.706;2023-07-02T08:55:54;47177.91;;;-146.65;48.35
57094;BME280;42970;50.996;3.706;2023-07-02T08:58:20;47179.91;;;-146.65;49.66
57094;BME280;42970;50.996;3.706;2023-07-02T09:01:30;47175.91;;;-146.65;47.63
57094;BME280;42970;50.996;3.706;2023-07-02T09:03:32;47175.91;;;-146.65;45.43
57094;BME280;42970;50.996;3.706;2023-07-02T09:05:57;47179.91;;;-146.65;46.01
57094;BME280;42970;50.996;3.706;2023-07-02T09:08:26;47175.91;;;-146.65;45.51
57094;BME280;42970;50.996;3.706;2023-07-02T09:10:52;47169.91;;;-146.65;46.09
57094;BME280;42970;50.996;3.706;2023-07-02T09:13:18;47179.91;;;-146.65;46.85
57094;BME280;42970;50.996;3.706;2023-07-02T09:15:43;47173.91;;;-146.65;46.78
57094;BME280;42970;50.996;3.706;2023-07-02T09:18:21;47181.91;;;-146.65;46.57
57094;BME280;42970;50.996;3.706;2023-07-02T09:20:50;47179.91;;;-146.65;48.00
57094;BME280;42970;50.996;3.706;2023-07-02T09:23:15;47173.91;;;-146.65;46.82
57094;BME280;42970;50.996;3.706;2023-07-02T09:25:40;47179.91;;;-146.65;46.82
57094;BME280;42970;50.996;3.706;2023-07-02T09:28:20;47175.91;;;-146.65;48.04
57094;BME280;42970;50.996;3.706;2023-07-02T09:31:04;47179.91;;;-146.65;47.88
57094;BME280;42970;50.996;3.706;2023-07-02T09:33:29;47175.91;;;-146.65;46.50
57094;BME280;42970;50.996;3.706;2023-07-02T09:35:55;47173.91;;;-146.65;44.29
57094;BME280;42970;50.996;3.706;2023-07-02T09:38:20;47179.91;;;-146.65;43.35
57094;BME280;42970;50.996;3.706;2023-07-02T09:40:49;47181.91;;;-146.65;42.85
57094;BME280;42970;50.996;3.706;2023-07-02T09:43:15;47179.91;;;-146.65;43.57
57094;BME280;42970;50.996;3.706;2023-07-02T09:45:42;47173.91;;;-146.65;43.22
57094;BME280;42970;50.996;3.706;2023-07-02T09:48:07;47177.91;;;-146.65;42.94
57094;BME280;42970;50.996;3.706;2023-07-02T09:50:33;47177.91;;;-146.65;42.63
57094;BME280;42970;50.996;3.706;2023-07-02T09:53:00;47173.91;;;-146.65;41.02
57094;BME280;42970;50.996;3.706;2023-07-02T09:55:25;47175.91;;;-146.65;41.84
57094;BME280;42970;50.996;3.706;2023-07-02T09:57:51;47173.91;;;-146.65;42.79
57094;BME280;42970;50.996;3.706;2023-07-02T10:00:16;47175.91;;;-146.65;42.30
57094;BME280;42970;50.996;3.706;2023-07-02T10:02:46;47181.91;;;-146.65;39.84
57094;BME280;42970;50.996;3.706;2023-07-02T10:05:22;47177.91;;;-146.65;39.65
57094;BME280;42970;50.996;3.706;2023-07-02T10:07:49;47179.91;;;-146.65;41.61
57094;BME280;42970;50.996;3.706;2023-07-02T10:10:25;47177.91;;;-146.65;41.97
57094;BME280;42970;50.996;3.706;2023-07-02T10:12:50;47173.91;;;-146.65;42.19
57094;BME280;42970;50.996;3.706;2023-07-02T10:15:23;47175.91;;;-146.65;39.89
57094;BME280;42970;50.996;3.706;2023-07-02T10:17:59;47177.91;;;-146.65;40.36
57094;BME280;42970;50.996;3.706;2023-07-02T10:20:32;47175.91;;;-146.65;39.49
57094;BME280;42970;50.996;3.706;2023-07-02T10:22:58;47177.91;;;-146.65;39.39
57094;BME280;42970;50.996;3.706;2023-07-02T10:25:24;47177.91;;;-146.65;38.32
57094;BME280;42970;50.996;3.706;2023-07-02T10:27:50;47171.91;;;-146.65;37.71
57094;BME280;42970;50.996;3.706;2023-07-02T10:30:16;47175.91;;;-146.65;36.70
57094;BME280;42970;50.996;3.706;2023-07-02T10:32:41;47181.91;;;-146.65;37.57
57094;BME280;42970;50.996;3.706;2023-07-02T10:35:13;47173.91;;;-146.65;38.94
57094;BME280;42970;50.996;3.706;2023-07-02T10:37:39;47173.91;;;-146.65;39.84
57094;BME280;42970;50.996;3.706;2023-07-02T10:40:05;47177.91;;;-146.65;40.55
57094;BME280;42970;50.996;3.706;2023-07-02T10:42:31;47175.91;;;-146.65;40.71
57094;BME280;42970;50.996;3.706;2023-07-02T10:44:58;47181.91;;;-146.65;41.74
57094;BME280;42970;50.996;3.706;2023-07-02T10:47:26;47173.91;;;-146.65;39.89
57094;BME280;42970;50.996;3.706;2023-07-02T10:49:53;47173.91;;;-146.65;40.94
57094;BME280;42970;50.996;3.706;2023-07-02T10:52:18;47175.91;;;-146.65;40.17
57094;BME280;42970;50.996;3.706;2023-07-02T10:54:44;47175.91;;;-146.65;39.41
57094;BME280;42970;50.996;3.706;2023-07-02T10:57:10;47179.91;;;-146.65;38.57
57094;BME280;42970;50.996;3.706;2023-07-02T10:59:37;47175.91;;;-146.65;37.12
57094;BME280;42970;50.996;3.706;2023-07-02T11:02:03;47171.91;;;-146.65;37.30
57094;BME280;42970;50.996;3.706;2023-07-02T11:04:29;47173.91;;;-146.65;38.17
57094;BME280;42970;50.996;3.706;2023-07-02T11:06:55;47175.91;;;-146.65;40.02
57094;BME280;42970;50.996;3.706;2023-07-02T11:09:20;47175.91;;;-146.65;39.99
57094;BME280;42970;50.996;3.706;2023-07-02T11:11:55;47177.91;;;-146.65;40.70
57094;BME280;42970;50.996;3.706;2023-07-02T11:14:28;47175.91;;;-146.65;40.39
57094;BME280;42970;50.996;3.706;2023-07-02T11:16:54;47175.91;;;-146.65;40.55
57094;BME280;42970;50.996;3.706;2023-07-02T11:19:19;47175.91;;;-146.65;40.82
57094;BME280;42970;50.996;3.706;2023-07-02T11:21:54;47175.91;;;-146.65;40.79
57094;BME280;42970;50.996;3.706;2023-07-02T11:24:28;47175.91;;;-146.65;40.73
57094;BME280;42970;50.996;3.706;2023-07-02T11:26:54;47173.91;;;-146.65;41.32
57094;BME280;42970;50.996;3.706;2023-07-02T11:29:19;47173.91;;;-146.65;41.04
57094;BME280;42970;50.996;3.706;2023-07-02T11:31:45;47169.91;;;-146.65;40.59
57094;BME280;42970;50.996;3.706;2023-07-02T11:34:14;47175.91;;;-146.65;37.86
57094;BME280;42970;50.996;3.706;2023-07-02T11:36:39;47175.91;;;-146.65;37.49
57094;BME280;42970;50.996;3.706;2023-07-02T11:39:05;47177.91;;;-146.65;37.25
57094;BME280;42970;50.996;3.706;2023-07-02T11:41:39;47171.91;;;-146.65;39.24
57094;BME280;42970;50.996;3.706;2023-07-02T11:44:05;47177.91;;;-146.65;39.68
57094;BME280;42970;50.996;3.706;2023-07-02T11:46:30;47181.91;;;-146.65;39.50
57094;BME280;42970;50.996;3.706;2023-07-02T11:48:56;47173.91;;;-146.65;41.44
57094;BME280;42970;50.996;3.706;2023-07-02T11:51:21;47169.91;;;-146.65;40.63
57094;BME280;42970;50.996;3.706;2023-07-02T11:53:46;47177.91;;;-146.65;36.21
57094;BME280;42970;50.996;3.706;2023-07-02T11:56:12;47171.91;;;-146.65;35.99
57094;BME280;42970;50.996;3.706;2023-07-02T11:58:38;47173.91;;;-146.65;36.76
57094;BME280;42970;50.996;3.706;2023-07-02T12:01:03;47179.91;;;-146.65;36.99
57094;BME280;42970;50.996;3.706;2023-07-02T12:03:29;47179.91;;;-146.65;37.66
57094;BME280;42970;50.996;3.706;2023-07-02T12:05:55;47177.91;;;-146.65;35.56
57094;BME280;42970;50.996;3.706;2023-07-02T12:08:20;47179.91;;;-146.65;34.80
57094;BME280;42970;50.996;3.706;2023-07-02T12:10:46;47179.91;;;-146.65;33.90
57094;BME280;42970;50.996;3.706;2023-07-02T12:13:11;47175.91;;;-146.65;33.82
57094;BME280;42970;50.996;3.706;2023-07-02T12:15:37;47177.91;;;-146.65;34.61
57094;BME280;42970;50.996;3.706;2023-07-02T12:18:02;47177.91;;;-146.65;36.22
57094;BME280;42970;50.996;3.706;2023-07-02T12:20:27;47181.91;;;-146.65;36.44
57094;BME280;42970;50.996;3.706;2023-07-02T12:22:52;47175.91;;;-146.65;37.01
57094;BME280;42970;50.996;3.706;2023-07-02T12:25:18;47181.91;;;-146.65;34.20
57094;BME280;42970;50.996;3.706;2023-07-02T12:27:43;47179.91;;;-146.65;34.65
57094;BME280;42970;50.996;3.706;2023-07-02T12:30:09;47173.91;;;-146.65;34.04
57094;BME280;42970;50.996;3.706;2023-07-02T12:32:34;47181.91;;;-146.65;32.50
57094;BME280;42970;50.996;3.706;2023-07-02T12:34:59;47177.91;;;-146.65;31.81